Time;durP1;ratioP1;P1;durP2;ratioP2;P2;SDS_P1;SDS_P2;PMS_P1;PMS_P2;Temp;Humidity;BMP_temperature;BMP_pressure;BME280_temperature;BME280_humidity;BME280_pressure;Samples;Min_cycle;Max_cycle;Signal;HPM_P1;HPM_P2
2023/12/21 00:01:45;;;;;;;21.55;7.30;;;9.30;99.90;;;;;;4984978;28;20054;-82
2023/12/21 00:04:10;;;;;;;23.38;7.72;;;9.30;99.90;;;;;;4967679;28;20056;-83
2023/12/21 00:06:36;;;;;;;28.13;8.93;;;9.30;99.90;;;;;;5011425;28;20470;-83
2023/12/21 00:09:02;;;;;;;34.03;8.85;;;9.30;99.90;;;;;;4960567;28;20065;-82
2023/12/21 00:11:28;;;;;;;24.20;8.43;;;9.30;99.90;;;;;;4995898;28;20050;-82
2023/12/21 00:13:53;;;;;;;27.77;8.20;;;9.30;99.90;;;;;;4979635;28;20469;-82
2023/12/21 00:16:19;;;;;;;31.25;9.05;;;9.30;99.90;;;;;;4978627;28;20042;-82
2023/12/21 00:18:45;;;;;;;30.10;8.77;;;9.30;99.90;;;;;;5016166;28;20569;-82
2023/12/21 00:21:11;;;;;;;26.33;8.15;;;9.30;99.90;;;;;;4981149;28;20057;-82
2023/12/21 00:23:37;;;;;;;33.13;9.93;;;9.30;99.90;;;;;;4957856;28;20038;-82
2023/12/21 00:26:03;;;;;;;29.50;8.70;;;9.30;99.90;;;;;;4981534;28;20042;-83
2023/12/21 00:28:29;;;;;;;28.38;9.00;;;9.30;99.90;;;;;;4981624;28;20104;-82
2023/12/21 00:30:54;;;;;;;27.50;8.43;;;9.40;99.90;;;;;;4977373;28;20524;-82
2023/12/21 00:33:20;;;;;;;27.35;9.10;;;9.40;99.90;;;;;;4988455;28;20047;-82
2023/12/21 00:35:46;;;;;;;25.20;8.90;;;9.40;99.90;;;;;;4982761;28;20053;-82
2023/12/21 00:38:12;;;;;;;31.80;9.25;;;9.30;99.90;;;;;;4998654;28;20054;-83
2023/12/21 00:40:37;;;;;;;28.17;8.88;;;9.30;99.90;;;;;;4965010;28;20061;-83
2023/12/21 00:43:03;;;;;;;24.50;8.07;;;9.40;99.90;;;;;;4975950;28;20062;-82
2023/12/21 00:45:30;;;;;;;31.92;9.10;;;9.30;99.90;;;;;;5007532;28;20061;-82
2023/12/21 00:47:56;;;;;;;21.90;8.13;;;9.40;99.90;;;;;;4982543;28;20094;-82
2023/12/21 00:50:22;;;;;;;26.13;7.72;;;9.40;99.90;;;;;;4970816;28;20559;-82
2023/12/21 00:52:47;;;;;;;33.78;9.23;;;9.40;99.90;;;;;;4977168;28;20050;-82
2023/12/21 00:55:13;;;;;;;24.05;8.57;;;9.40;99.90;;;;;;4965107;28;20053;-82
2023/12/21 00:57:39;;;;;;;23.35;8.40;;;9.40;99.90;;;;;;4995526;28;20129;-82
2023/12/21 01:00:06;;;;;;;28.50;7.93;;;9.40;99.90;;;;;;5016667;28;20096;-82
2023/12/21 01:02:31;;;;;;;27.52;8.98;;;9.40;99.90;;;;;;4997328;28;20129;-81
2023/12/21 01:04:57;;;;;;;32.33;9.48;;;9.40;99.90;;;;;;4958000;28;20467;-82
2023/12/21 01:07:23;;;;;;;23.77;8.30;;;9.40;99.90;;;;;;4979237;28;20479;-82
2023/12/21 01:09:49;;;;;;;26.08;8.35;;;9.40;99.90;;;;;;5012390;28;20414;-82
2023/12/21 01:12:15;;;;;;;23.70;8.40;;;9.40;99.90;;;;;;4999622;28;20053;-82
2023/12/21 01:14:41;;;;;;;26.45;7.95;;;9.40;99.90;;;;;;4980119;28;20047;-82
2023/12/21 01:17:07;;;;;;;24.48;8.10;;;9.40;99.90;;;;;;4979176;28;20054;-80
2023/12/21 01:19:33;;;;;;;25.83;8.82;;;9.40;99.90;;;;;;4999047;28;20096;-82
2023/12/21 01:21:59;;;;;;;28.80;8.05;;;9.40;99.90;;;;;;4969906;28;20129;-82
2023/12/21 01:24:28;;;;;;;30.83;9.00;;;9.40;99.90;;;;;;5010933;28;20086;-82
2023/12/21 01:26:57;;;;;;;25.27;8.82;;;9.40;99.90;;;;;;5009343;28;20404;-82
2023/12/21 01:29:23;;;;;;;24.42;7.95;;;9.40;99.90;;;;;;4970480;28;20121;-83
2023/12/21 01:31:50;;;;;;;21.17;8.38;;;9.40;99.90;;;;;;5007582;28;20128;-83
2023/12/21 01:34:16;;;;;;;21.55;7.68;;;9.40;99.90;;;;;;4981929;28;20053;-83
2023/12/21 01:36:42;;;;;;;26.67;8.85;;;9.40;99.90;;;;;;4982485;28;20443;-83
2023/12/21 01:39:08;;;;;;;22.05;8.55;;;9.40;99.90;;;;;;4962304;28;20448;-82
2023/12/21 01:41:35;;;;;;;28.73;8.63;;;9.40;99.90;;;;;;4976530;28;20098;-83
2023/12/21 01:44:02;;;;;;;25.45;8.65;;;9.40;99.90;;;;;;4979196;28;20528;-83
2023/12/21 01:46:29;;;;;;;26.35;9.15;;;9.40;99.90;;;;;;4966608;28;20046;-83
2023/12/21 01:48:58;;;;;;;20.63;7.88;;;9.40;99.90;;;;;;4962256;28;20046;-83
2023/12/21 01:51:24;;;;;;;23.08;7.88;;;9.40;99.90;;;;;;5001129;28;20062;-82
2023/12/21 01:53:51;;;;;;;23.55;7.57;;;9.40;99.90;;;;;;4970412;28;20049;-82
2023/12/21 01:56:20;;;;;;;19.75;8.35;;;9.40;99.90;;;;;;4969298;28;20550;-79
2023/12/21 01:58:49;;;;;;;23.58;8.18;;;9.40;99.90;;;;;;4965171;28;20476;-83
2023/12/21 02:01:19;;;;;;;23.00;7.82;;;9.40;99.90;;;;;;4993322;28;20045;-83
2023/12/21 02:03:44;;;;;;;24.10;8.35;;;9.40;99.90;;;;;;4965167;28;20043;-82
2023/12/21 02:06:11;;;;;;;25.60;8.13;;;9.40;99.90;;;;;;5000824;28;20108;-84
2023/12/21 02:08:37;;;;;;;24.58;7.32;;;9.40;99.90;;;;;;4977062;28;20516;-83
2023/12/21 02:11:10;;;;;;;19.70;7.57;;;9.40;99.90;;;;;;4952567;28;20076;-82
2023/12/21 02:13:36;;;;;;;20.60;7.00;;;9.40;99.90;;;;;;4986868;28;20292;-83
2023/12/21 02:16:11;;;;;;;24.33;7.07;;;9.40;99.90;;;;;;4963369;28;20043;-83
2023/12/21 02:18:36;;;;;;;24.17;6.53;;;9.40;99.90;;;;;;4983166;28;20046;-83
2023/12/21 02:21:06;;;;;;;21.00;6.75;;;9.30;99.90;;;;;;4995184;28;20120;-83
2023/12/21 02:23:36;;;;;;;20.50;6.57;;;9.40;99.90;;;;;;4958672;28;20042;-84
2023/12/21 02:26:02;;;;;;;25.25;7.22;;;9.40;99.90;;;;;;4978931;28;20047;-82
2023/12/21 02:28:30;;;;;;;21.10;7.03;;;9.40;99.90;;;;;;4971599;28;20424;-84
2023/12/21 02:30:58;;;;;;;24.35;6.50;;;9.40;99.90;;;;;;4960166;28;20054;-83
2023/12/21 02:33:24;;;;;;;23.13;6.80;;;9.40;99.90;;;;;;4982001;28;20524;-83
2023/12/21 02:35:53;;;;;;;20.85;6.50;;;9.40;99.90;;;;;;4959704;28;20051;-82
2023/12/21 02:38:23;;;;;;;22.48;7.50;;;9.40;99.90;;;;;;5008863;28;20045;-83
2023/12/21 02:40:49;;;;;;;;;;;9.40;99.90;;;;;;4986855;28;20494;-83
2023/12/21 02:43:14;;;;;;;21.42;6.85;;;9.40;99.90;;;;;;4954753;28;19983;-85
2023/12/21 02:45:40;;;;;;;18.15;6.78;;;9.40;99.90;;;;;;4973564;28;20049;-83
2023/12/21 02:48:06;;;;;;;14.82;6.60;;;9.40;99.90;;;;;;4977408;28;20064;-83
2023/12/21 02:50:32;;;;;;;17.38;6.28;;;9.40;99.90;;;;;;4979561;28;20054;-82
2023/12/21 02:52:58;;;;;;;18.40;6.70;;;9.30;99.90;;;;;;5014236;28;20061;-82
2023/12/21 02:55:24;;;;;;;19.48;6.60;;;9.30;99.90;;;;;;4957705;28;20613;-82
2023/12/21 02:57:49;;;;;;;22.73;7.63;;;9.30;99.90;;;;;;4967787;28;20409;-82
2023/12/21 03:00:15;;;;;;;20.35;7.05;;;9.30;99.90;;;;;;4968886;28;20051;-82
2023/12/21 03:02:41;;;;;;;24.77;6.88;;;9.30;99.90;;;;;;4997351;28;20403;-81
2023/12/21 03:05:07;;;;;;;23.27;7.18;;;9.30;99.90;;;;;;4978189;28;20042;-81
2023/12/21 03:07:32;;;;;;;14.15;6.05;;;9.30;99.90;;;;;;4974261;28;20042;-79
2023/12/21 03:09:58;;;;;;;24.15;7.35;;;9.30;99.90;;;;;;4977207;28;20050;-82
2023/12/21 03:12:24;;;;;;;25.17;7.05;;;9.30;99.90;;;;;;5009395;28;20398;-81
2023/12/21 03:14:50;;;;;;;17.42;6.82;;;9.20;99.90;;;;;;4976290;28;20053;-81
2023/12/21 03:17:15;;;;;;;22.23;7.20;;;9.30;99.90;;;;;;4982595;28;20072;-80
2023/12/21 03:19:41;;;;;;;22.20;8.10;;;9.30;99.90;;;;;;4976687;28;20092;-80
2023/12/21 03:22:07;;;;;;;25.63;8.07;;;9.30;99.90;;;;;;5015568;28;20567;-81
2023/12/21 03:24:33;;;;;;;17.85;7.68;;;9.30;99.90;;;;;;4962225;28;20446;-83
2023/12/21 03:26:58;;;;;;;19.83;7.25;;;9.30;99.90;;;;;;4964937;28;20364;-82
2023/12/21 03:29:24;;;;;;;16.25;6.78;;;9.30;99.90;;;;;;4977103;28;20031;-81
2023/12/21 03:31:52;;;;;;;14.95;6.28;;;9.30;99.90;;;;;;4985025;28;20050;-80
2023/12/21 03:34:18;;;;;;;13.93;6.28;;;9.30;99.90;;;;;;4980017;28;20423;-79
2023/12/21 03:36:44;;;;;;;15.27;6.80;;;9.30;99.90;;;;;;5002030;28;20049;-82
2023/12/21 03:39:10;;;;;;;15.73;6.10;;;9.30;99.90;;;;;;4985973;28;20472;-82
2023/12/21 03:41:36;;;;;;;17.90;6.18;;;9.40;99.90;;;;;;4995816;28;20227;-82
2023/12/21 03:44:02;;;;;;;18.02;6.50;;;9.30;99.90;;;;;;4983056;28;20055;-81
2023/12/21 03:46:27;;;;;;;19.58;6.28;;;9.30;99.90;;;;;;5015330;28;20034;-82
2023/12/21 03:48:53;;;;;;;17.92;7.18;;;9.30;99.90;;;;;;4962989;28;20050;-82
2023/12/21 03:51:19;;;;;;;20.95;6.47;;;9.40;99.90;;;;;;4982198;28;20477;-82
2023/12/21 03:53:45;;;;;;;14.77;7.10;;;9.30;99.90;;;;;;4966094;28;20050;-82
2023/12/21 03:56:14;;;;;;;11.48;6.63;;;9.30;99.90;;;;;;4996460;28;20061;-82
2023/12/21 03:58:39;;;;;;;12.50;6.60;;;9.40;99.90;;;;;;4970400;28;20049;-81
2023/12/21 04:01:05;;;;;;;15.65;7.30;;;9.40;99.90;;;;;;4994468;28;20503;-82
2023/12/21 04:03:31;;;;;;;16.75;7.40;;;9.40;99.90;;;;;;4978324;28;20095;-82
2023/12/21 04:05:56;;;;;;;16.65;7.22;;;9.30;99.90;;;;;;4988965;28;20042;-81
2023/12/21 04:08:23;;;;;;;15.95;7.10;;;9.40;99.90;;;;;;4977815;28;20089;-82
2023/12/21 04:10:48;;;;;;;21.05;8.00;;;9.30;99.90;;;;;;4964739;28;20074;-82
2023/12/21 04:13:15;;;;;;;14.25;6.55;;;9.30;99.90;;;;;;4999727;28;20131;-81
2023/12/21 04:15:41;;;;;;;14.63;6.45;;;9.30;99.90;;;;;;4995589;28;20035;-78
2023/12/21 04:18:06;;;;;;;15.10;7.20;;;9.30;99.90;;;;;;4981908;28;20524;-77
2023/12/21 04:20:32;;;;;;;14.52;6.88;;;9.40;99.90;;;;;;4984684;28;20354;-82
2023/12/21 04:22:58;;;;;;;14.07;6.80;;;9.30;99.90;;;;;;4985254;28;20073;-82
2023/12/21 04:25:23;;;;;;;12.55;7.10;;;9.30;99.90;;;;;;4976118;28;20047;-81
2023/12/21 04:27:49;;;;;;;13.48;6.90;;;9.30;99.90;;;;;;4969093;28;20148;-78
2023/12/21 04:30:15;;;;;;;16.27;8.25;;;9.30;99.90;;;;;;4984648;28;20101;-81
2023/12/21 04:32:42;;;;;;;13.30;7.20;;;9.30;99.90;;;;;;4979032;28;20049;-82
2023/12/21 04:35:09;;;;;;;18.17;8.25;;;9.30;99.90;;;;;;5019511;28;20130;-80
2023/12/21 04:37:34;;;;;;;18.63;8.18;;;9.30;99.90;;;;;;5015877;28;20038;-82
2023/12/21 04:40:00;;;;;;;19.08;8.18;;;9.30;99.90;;;;;;4966098;28;20058;-79
2023/12/21 04:42:26;;;;;;;17.58;8.10;;;9.30;99.90;;;;;;4981880;28;20080;-83
2023/12/21 04:44:52;;;;;;;21.80;8.13;;;9.40;99.90;;;;;;5002519;28;20130;-82
2023/12/21 04:47:17;;;;;;;20.65;7.90;;;9.40;99.90;;;;;;4961207;28;20077;-82
2023/12/21 04:49:43;;;;;;;15.73;7.70;;;9.30;99.90;;;;;;4964957;28;20050;-83
2023/12/21 04:52:09;;;;;;;16.67;7.60;;;9.30;99.90;;;;;;4997006;28;20137;-79
2023/12/21 04:54:35;;;;;;;21.40;7.63;;;9.40;99.90;;;;;;4950879;28;20293;-81
2023/12/21 04:57:00;;;;;;;16.95;6.75;;;9.40;99.90;;;;;;4963950;28;20047;-80
2023/12/21 04:59:27;;;;;;;18.90;7.38;;;9.40;99.90;;;;;;4997589;28;20099;-82
2023/12/21 05:01:54;;;;;;;19.38;7.60;;;9.40;99.90;;;;;;4969116;28;20495;-80
2023/12/21 05:04:20;;;;;;;16.67;7.80;;;9.40;99.90;;;;;;4981033;28;20113;-78
2023/12/21 05:06:46;;;;;;;16.00;7.13;;;9.40;99.90;;;;;;4958048;28;20348;-81
2023/12/21 05:09:11;;;;;;;17.80;7.25;;;9.40;99.90;;;;;;5004756;28;20081;-80
2023/12/21 05:11:37;;;;;;;16.98;8.02;;;9.40;99.90;;;;;;4968819;28;20050;-81
2023/12/21 05:14:03;;;;;;;16.60;8.00;;;9.40;99.90;;;;;;4981105;28;20110;-82
2023/12/21 05:16:28;;;;;;;18.55;7.68;;;9.40;99.90;;;;;;4980897;28;20125;-81
2023/12/21 05:18:54;;;;;;;13.95;6.28;;;9.40;99.90;;;;;;5005830;28;20119;-78
2023/12/21 05:21:20;;;;;;;18.73;7.10;;;9.40;99.90;;;;;;4983771;28;20054;-78
2023/12/21 05:23:46;;;;;;;17.10;6.68;;;9.50;99.90;;;;;;4976447;28;20054;-81
2023/12/21 05:26:14;;;;;;;13.65;6.63;;;9.40;99.90;;;;;;5019386;28;20064;-80
2023/12/21 05:28:42;;;;;;;15.93;7.25;;;9.40;99.90;;;;;;4981604;28;20069;-81
2023/12/21 05:31:11;;;;;;;15.82;7.18;;;9.40;99.90;;;;;;4992110;28;20051;-81
2023/12/21 05:33:38;;;;;;;18.83;7.07;;;9.40;99.90;;;;;;4980138;28;20133;-81
2023/12/21 05:36:04;;;;;;;16.92;6.47;;;9.40;99.90;;;;;;4966735;28;20046;-79
2023/12/21 05:38:30;;;;;;;16.92;6.30;;;9.40;99.90;;;;;;4982132;28;20046;-81
2023/12/21 05:41:02;;;;;;;17.33;6.90;;;9.40;99.90;;;;;;4999863;28;20123;-81
2023/12/21 05:43:27;;;;;;;14.68;5.55;;;9.40;99.90;;;;;;4986064;28;20043;-80
2023/12/21 05:45:53;;;;;;;13.50;5.43;;;9.40;99.90;;;;;;4999480;28;20049;-81
2023/12/21 05:48:19;;;;;;;16.90;5.60;;;9.40;99.90;;;;;;4980353;28;20452;-82
2023/12/21 05:50:45;;;;;;;17.23;5.20;;;9.40;99.90;;;;;;4972103;28;20510;-77
2023/12/21 05:53:13;;;;;;;14.43;5.15;;;9.40;99.90;;;;;;5001359;28;20046;-81
2023/12/21 05:55:39;;;;;;;12.10;4.57;;;9.50;99.90;;;;;;4992978;28;20121;-79
2023/12/21 05:58:05;;;;;;;18.55;5.50;;;9.50;99.90;;;;;;4971087;28;20125;-80
2023/12/21 06:00:31;;;;;;;16.33;5.45;;;9.50;99.90;;;;;;4978001;28;20405;-79
2023/12/21 06:02:57;;;;;;;20.20;5.28;;;9.50;99.90;;;;;;4981260;28;20054;-78
2023/12/21 06:05:23;;;;;;;15.38;4.78;;;9.50;99.90;;;;;;4956328;28;20135;-79
2023/12/21 06:07:49;;;;;;;13.00;5.13;;;9.50;99.90;;;;;;5007825;28;20086;-78
2023/12/21 06:10:15;;;;;;;18.33;5.65;;;9.50;99.90;;;;;;4979071;28;20138;-78
2023/12/21 06:12:41;;;;;;;14.45;5.03;;;9.50;99.90;;;;;;5009906;28;20074;-76
2023/12/21 06:15:07;;;;;;;13.50;4.70;;;9.50;99.90;;;;;;5009115;28;20039;-79
2023/12/21 06:17:33;;;;;;;19.45;5.80;;;9.50;99.90;;;;;;4960581;28;20390;-81
2023/12/21 06:19:59;;;;;;;14.60;5.28;;;9.50;99.90;;;;;;4970393;28;20046;-79
2023/12/21 06:22:25;;;;;;;14.65;4.70;;;9.60;99.90;;;;;;4983924;28;20054;-83
2023/12/21 06:24:51;;;;;;;16.45;4.75;;;9.60;99.90;;;;;;4977857;28;20133;-79
2023/12/21 06:27:17;;;;;;;17.98;4.93;;;9.60;99.90;;;;;;4978977;28;20043;-80
2023/12/21 06:29:43;;;;;;;16.83;4.75;;;9.60;99.90;;;;;;4995524;28;20042;-79
2023/12/21 06:32:08;;;;;;;14.38;4.68;;;9.60;99.90;;;;;;5009315;28;20092;-79
2023/12/21 06:34:34;;;;;;;13.23;4.50;;;9.60;99.90;;;;;;4983567;28;20548;-78
2023/12/21 06:37:01;;;;;;;13.45;4.32;;;9.60;99.90;;;;;;4967761;28;20050;-81
2023/12/21 06:39:26;;;;;;;14.30;4.97;;;9.60;99.90;;;;;;4965290;28;20053;-81
2023/12/21 06:41:52;;;;;;;16.77;4.65;;;9.60;99.90;;;;;;5009134;28;20737;-81
2023/12/21 06:44:18;;;;;;;12.95;4.55;;;9.60;99.90;;;;;;4961451;28;20475;-83
2023/12/21 06:46:44;;;;;;;11.60;4.20;;;9.60;99.90;;;;;;4981814;28;20078;-82
2023/12/21 06:49:13;;;;;;;13.70;4.40;;;9.60;99.90;;;;;;4960675;28;20050;-75
2023/12/21 06:51:38;;;;;;;16.33;4.15;;;9.60;99.90;;;;;;4976290;28;20571;-76
2023/12/21 06:54:06;;;;;;;12.48;3.75;;;9.60;99.90;;;;;;4997325;28;20050;-75
2023/12/21 06:56:31;;;;;;;12.25;4.40;;;9.60;99.90;;;;;;4957513;28;20038;-77
2023/12/21 06:58:57;;;;;;;11.18;3.65;;;9.60;99.90;;;;;;5013428;28;20108;-76
2023/12/21 07:01:26;;;;;;;14.25;4.97;;;9.60;99.90;;;;;;4999817;28;20435;-76
2023/12/21 07:03:53;;;;;;;10.30;3.63;;;9.60;99.90;;;;;;4980347;28;20084;-82
2023/12/21 07:06:19;;;;;;;10.80;4.45;;;9.60;99.90;;;;;;5006552;28;20410;-83
2023/12/21 07:08:45;;;;;;;11.75;4.55;;;9.60;99.90;;;;;;4981004;28;20042;-85
2023/12/21 07:11:10;;;;;;;12.40;3.70;;;9.60;99.90;;;;;;4984801;28;20095;-83
2023/12/21 07:13:36;;;;;;;8.88;3.30;;;9.50;99.90;;;;;;4997684;28;20502;-81
2023/12/21 07:16:02;;;;;;;8.35;2.85;;;9.50;99.90;;;;;;4982888;28;20073;-82
2023/12/21 07:18:28;;;;;;;10.27;3.28;;;9.50;99.90;;;;;;4977834;28;20506;-74
2023/12/21 07:20:54;;;;;;;11.23;2.83;;;9.60;99.90;;;;;;4984708;28;20108;-77
2023/12/21 07:23:19;;;;;;;13.38;2.90;;;9.60;99.90;;;;;;4983062;28;20038;-77
2023/12/21 07:25:45;;;;;;;8.25;3.05;;;9.60;99.90;;;;;;5000334;28;20406;-75
2023/12/21 07:28:11;;;;;;;13.00;3.17;;;9.60;99.90;;;;;;4986434;28;20080;-78
2023/12/21 07:30:40;;;;;;;9.15;3.00;;;9.50;99.90;;;;;;5011737;28;20042;-78
2023/12/21 07:33:05;;;;;;;12.95;3.47;;;9.60;99.90;;;;;;4970008;28;20375;-75
2023/12/21 07:35:31;;;;;;;8.38;2.92;;;9.50;99.90;;;;;;4978880;28;20498;-75
2023/12/21 07:37:57;;;;;;;8.23;2.63;;;9.60;99.90;;;;;;4983880;28;20054;-76
2023/12/21 07:40:22;;;;;;;14.13;3.05;;;9.60;99.90;;;;;;5016959;28;20554;-76
2023/12/21 07:42:48;;;;;;;8.88;2.75;;;9.60;99.90;;;;;;4984545;28;20494;-76
2023/12/21 07:45:14;;;;;;;8.45;3.05;;;9.50;99.90;;;;;;4964981;28;20047;-76
2023/12/21 07:47:40;;;;;;;8.93;2.58;;;9.50;99.90;;;;;;4982887;28;20049;-76
2023/12/21 07:50:06;;;;;;;8.32;2.53;;;9.50;99.90;;;;;;4982921;28;20457;-77
2023/12/21 07:52:32;;;;;;;9.35;2.67;;;9.50;99.90;;;;;;4972537;28;20042;-76
2023/12/21 07:54:57;;;;;;;8.43;2.33;;;9.50;99.90;;;;;;4957521;28;20124;-77
2023/12/21 07:57:23;;;;;;;6.82;2.38;;;9.50;99.90;;;;;;4965839;28;20498;-75
2023/12/21 07:59:52;;;;;;;10.18;2.92;;;9.50;99.90;;;;;;4977787;28;20077;-76
2023/12/21 08:02:17;;;;;;;6.88;2.42;;;9.50;99.90;;;;;;4976561;28;20318;-76
2023/12/21 08:04:43;;;;;;;8.75;2.67;;;9.50;99.90;;;;;;4978756;28;20082;-78
2023/12/21 08:07:09;;;;;;;6.30;2.10;;;9.50;99.90;;;;;;4981529;28;20443;-79
2023/12/21 08:09:35;;;;;;;4.93;1.85;;;9.50;99.90;;;;;;4969050;28;20149;-78
2023/12/21 08:12:00;;;;;;;4.32;1.70;;;9.50;99.90;;;;;;4983670;28;20043;-79
2023/12/21 08:14:28;;;;;;;6.10;2.00;;;9.50;99.90;;;;;;4968981;28;20502;-77
2023/12/21 08:16:54;;;;;;;7.57;1.92;;;9.50;99.90;;;;;;4961898;28;20208;-77
2023/12/21 08:19:21;;;;;;;6.63;1.80;;;9.50;99.90;;;;;;4998578;28;20480;-77
2023/12/21 08:21:47;;;;;;;6.18;1.88;;;9.50;99.90;;;;;;5000800;28;20497;-78
2023/12/21 08:24:12;;;;;;;4.57;1.50;;;9.50;99.90;;;;;;4968519;28;20050;-78
2023/12/21 08:26:38;;;;;;;3.40;1.25;;;9.50;99.90;;;;;;4978411;28;20055;-77
2023/12/21 08:29:04;;;;;;;6.60;1.77;;;9.50;99.90;;;;;;4981215;28;20914;-77
2023/12/21 08:31:30;;;;;;;3.55;1.20;;;9.50;99.90;;;;;;4980593;28;20050;-78
2023/12/21 08:33:56;;;;;;;5.28;1.35;;;9.50;99.90;;;;;;5008741;28;20047;-78
2023/12/21 08:36:22;;;;;;;3.47;1.50;;;9.50;99.90;;;;;;4995541;28;20090;-79
2023/12/21 08:38:48;;;;;;;4.75;1.70;;;9.60;99.90;;;;;;5016967;28;20034;-79
2023/12/21 08:41:13;;;;;;;5.47;1.45;;;9.60;99.90;;;;;;4983896;28;20081;-78
2023/12/21 08:43:39;;;;;;;9.40;2.08;;;9.60;99.90;;;;;;4965450;28;20069;-78
2023/12/21 08:46:05;;;;;;;3.97;1.60;;;9.60;99.90;;;;;;4981021;28;20090;-77
2023/12/21 08:48:31;;;;;;;10.32;2.22;;;9.60;99.90;;;;;;4964916;28;20485;-76
2023/12/21 08:50:57;;;;;;;7.40;2.40;;;9.60;99.90;;;;;;4981390;28;20087;-76
2023/12/21 08:53:22;;;;;;;12.10;3.13;;;9.70;99.90;;;;;;4963666;28;20050;-77
2023/12/21 08:55:48;;;;;;;9.00;2.45;;;9.70;99.90;;;;;;4982843;28;20103;-76
2023/12/21 08:58:14;;;;;;;7.55;2.60;;;9.70;99.90;;;;;;4982423;28;20576;-77
2023/12/21 09:00:40;;;;;;;12.35;3.03;;;9.70;99.90;;;;;;4994704;28;20088;-77
2023/12/21 09:03:06;;;;;;;9.75;3.08;;;9.70;99.90;;;;;;4984491;28;20054;-77
2023/12/21 09:05:32;;;;;;;9.95;3.03;;;9.80;99.90;;;;;;4978681;28;20050;-76
2023/12/21 09:07:58;;;;;;;11.85;3.50;;;9.80;99.90;;;;;;5000038;28;20065;-76
2023/12/21 09:10:24;;;;;;;13.48;3.28;;;9.80;99.90;;;;;;4980798;28;20050;-76
2023/12/21 09:12:50;;;;;;;11.32;3.35;;;9.80;99.90;;;;;;4984385;28;20046;-76
2023/12/21 09:15:16;;;;;;;13.00;3.42;;;9.80;99.90;;;;;;4977924;28;20108;-77
2023/12/21 09:17:42;;;;;;;15.88;3.50;;;9.80;99.90;;;;;;5011027;28;20035;-77
2023/12/21 09:20:08;;;;;;;15.82;4.53;;;9.80;99.90;;;;;;4976568;28;20502;-76
2023/12/21 09:22:36;;;;;;;12.93;3.10;;;9.80;99.90;;;;;;4967439;28;20050;-77
2023/12/21 09:25:02;;;;;;;12.90;3.15;;;9.80;99.90;;;;;;4997019;28;21313;-78
2023/12/21 09:27:30;;;;;;;9.55;2.40;;;9.90;99.90;;;;;;4968454;28;20135;-77
2023/12/21 09:29:56;;;;;;;11.15;2.45;;;9.90;99.90;;;;;;4978247;28;20611;-77
2023/12/21 09:32:23;;;;;;;11.85;2.97;;;9.90;99.90;;;;;;4972895;28;20034;-77
2023/12/21 09:34:49;;;;;;;9.93;2.97;;;9.90;99.90;;;;;;4983182;28;20051;-77
2023/12/21 09:37:15;;;;;;;9.63;2.50;;;9.90;99.90;;;;;;5014638;28;20046;-76
2023/12/21 09:39:41;;;;;;;11.02;2.67;;;9.90;99.90;;;;;;4981874;28;20524;-78
2023/12/21 09:42:07;;;;;;;14.15;3.40;;;9.90;99.90;;;;;;4984533;28;20062;-78
2023/12/21 09:44:34;;;;;;;13.52;3.80;;;10.00;99.90;;;;;;4964528;28;20498;-78
2023/12/21 09:47:06;;;;;;;14.25;3.47;;;10.00;99.90;;;;;;5017961;28;20124;-80
2023/12/21 09:49:36;;;;;;;15.20;3.83;;;10.00;99.90;;;;;;4971944;28;20099;-79
2023/12/21 09:52:08;;;;;;;18.98;4.13;;;10.00;99.90;;;;;;4963493;28;20096;-79
2023/12/21 09:54:40;;;;;;;17.27;3.95;;;10.20;99.90;;;;;;4958564;28;20042;-80
2023/12/21 09:57:09;;;;;;;17.40;3.90;;;10.10;99.90;;;;;;5011145;28;20137;-75
2023/12/21 09:59:35;;;;;;;20.38;4.18;;;10.00;99.90;;;;;;4976809;28;20043;-78
2023/12/21 10:02:08;;;;;;;16.73;4.20;;;10.20;99.90;;;;;;5014747;28;20047;-78
2023/12/21 10:04:34;;;;;;;17.02;4.40;;;10.20;99.90;;;;;;5008798;28;20042;-77
2023/12/21 10:07:00;;;;;;;17.30;4.20;;;10.20;99.90;;;;;;5016103;28;20557;-77
2023/12/21 10:09:26;;;;;;;15.95;3.92;;;10.30;99.90;;;;;;4998941;28;20043;-78
2023/12/21 10:11:52;;;;;;;20.08;4.47;;;10.30;99.90;;;;;;4961919;28;20572;-76
2023/12/21 10:14:21;;;;;;;18.15;3.83;;;10.40;99.90;;;;;;4978498;28;20061;-76
2023/12/21 10:16:47;;;;;;;20.48;4.50;;;10.40;99.90;;;;;;4998931;28;20082;-76
2023/12/21 10:19:13;;;;;;;20.95;4.43;;;10.40;99.90;;;;;;5009878;28;20073;-76
2023/12/21 10:21:42;;;;;;;16.98;3.67;;;10.40;99.90;;;;;;5009872;28;20082;-77
2023/12/21 10:24:10;;;;;;;17.20;4.07;;;10.40;99.90;;;;;;5015037;28;20409;-76
2023/12/21 10:26:46;;;;;;;18.73;3.92;;;10.40;99.90;;;;;;4982411;28;20078;-77
2023/12/21 10:29:16;;;;;;;17.80;4.90;;;10.50;99.90;;;;;;4966144;28;20034;-77
2023/12/21 10:31:47;;;;;;;18.65;4.20;;;10.50;99.90;;;;;;4998762;28;20037;-76
2023/12/21 10:34:14;;;;;;;19.10;4.63;;;10.50;99.90;;;;;;4978445;28;20046;-76
2023/12/21 10:36:44;;;;;;;17.80;3.42;;;10.50;99.90;;;;;;4993197;28;20042;-77
2023/12/21 10:39:15;;;;;;;18.65;4.30;;;10.50;99.90;;;;;;5009467;28;20046;-76
2023/12/21 10:41:45;;;;;;;17.02;3.65;;;10.50;99.90;;;;;;4996393;28;20038;-77
2023/12/21 10:44:15;;;;;;;16.83;3.30;;;10.60;99.90;;;;;;4968024;28;20082;-78
2023/12/21 10:46:43;;;;;;;;;;;10.60;99.90;;;;;;4984354;28;20076;-78
2023/12/21 10:49:13;;;;;;;18.85;3.70;;;10.60;99.90;;;;;;5011251;28;19948;-77
2023/12/21 10:51:42;;;;;;;18.15;4.20;;;10.60;99.90;;;;;;4962950;28;20509;-77
2023/12/21 10:54:11;;;;;;;15.30;3.33;;;10.60;99.90;;;;;;5014016;28;20058;-77
2023/12/21 10:56:42;;;;;;;15.10;3.92;;;10.70;99.90;;;;;;4990709;28;20038;-77
2023/12/21 10:59:10;;;;;;;17.15;3.50;;;10.70;99.90;;;;;;4981109;28;20053;-77
2023/12/21 11:01:38;;;;;;;17.15;3.97;;;10.80;99.90;;;;;;4999805;28;20525;-77
2023/12/21 11:04:05;;;;;;;20.33;4.10;;;10.70;99.90;;;;;;4962952;28;20143;-77
2023/12/21 11:06:33;;;;;;;17.35;4.53;;;10.70;99.90;;;;;;4977176;28;20038;-77
2023/12/21 11:09:00;;;;;;;15.98;3.78;;;10.70;99.90;;;;;;4977907;28;20050;-79
2023/12/21 11:11:27;;;;;;;17.02;3.42;;;10.70;99.90;;;;;;4981230;28;20046;-78
2023/12/21 11:13:57;;;;;;;21.33;3.65;;;10.80;99.90;;;;;;4966730;28;20058;-79
2023/12/21 11:16:31;;;;;;;17.25;3.50;;;10.80;99.90;;;;;;4975718;28;20372;-78
2023/12/21 11:19:01;;;;;;;17.08;4.10;;;10.80;99.90;;;;;;4978886;28;20468;-79
2023/12/21 11:21:28;;;;;;;18.08;3.25;;;10.70;99.90;;;;;;4981079;28;20050;-77
2023/12/21 11:23:54;;;;;;;15.27;3.42;;;10.80;99.90;;;;;;4987731;28;20039;-77
2023/12/21 11:26:27;;;;;;;17.50;4.18;;;10.80;99.90;;;;;;4981603;28;20409;-79
2023/12/21 11:29:06;;;;;;;18.98;4.13;;;10.90;99.90;;;;;;4974516;28;20042;-77
2023/12/21 11:31:40;;;;;;;16.17;3.47;;;10.90;99.90;;;;;;4995471;28;20444;-77
2023/12/21 11:34:16;;;;;;;20.65;4.15;;;10.90;99.90;;;;;;4962907;28;20057;-77
2023/12/21 11:36:42;;;;;;;17.70;4.30;;;10.90;99.90;;;;;;4978247;28;20066;-75
2023/12/21 11:39:14;;;;;;;20.25;4.05;;;10.90;99.90;;;;;;4963895;28;20547;-79
2023/12/21 11:41:59;;;;;;;20.05;4.30;;;10.90;99.90;;;;;;5010691;28;20506;-77
2023/12/21 11:44:38;;;;;;;20.17;4.05;;;11.00;99.90;;;;;;4980028;28;20050;-77
2023/12/21 11:47:25;;;;;;;25.33;4.95;;;10.90;99.90;;;;;;4979875;28;20163;-77
2023/12/21 11:49:51;;;;;;;20.23;4.72;;;10.90;99.90;;;;;;4963393;28;20069;-75
2023/12/21 11:52:24;;;;;;;15.57;4.40;;;10.90;99.90;;;;;;4980029;28;20122;-75
2023/12/21 11:54:54;;;;;;;17.05;4.30;;;10.90;99.90;;;;;;4981023;28;20043;-77
2023/12/21 11:57:19;;;;;;;18.38;3.80;;;10.90;99.90;;;;;;5012882;28;20119;-77
2023/12/21 11:59:46;;;;;;;16.08;4.03;;;10.90;99.90;;;;;;5014836;28;20366;-76
2023/12/21 12:02:13;;;;;;;19.02;3.90;;;11.00;99.90;;;;;;4965573;28;20611;-75
2023/12/21 12:04:39;;;;;;;18.23;4.45;;;10.90;99.90;;;;;;4981713;28;20090;-76
2023/12/21 12:07:04;;;;;;;20.27;4.43;;;11.00;99.90;;;;;;4965579;28;20518;-76
2023/12/21 12:09:30;;;;;;;17.90;4.25;;;11.00;99.90;;;;;;4968597;28;20050;-75
2023/12/21 12:11:59;;;;;;;19.33;4.45;;;11.00;99.90;;;;;;4981646;28;20035;-76
2023/12/21 12:14:28;;;;;;;18.77;4.22;;;11.10;99.90;;;;;;4982572;28;20058;-75
2023/12/21 12:16:54;;;;;;;17.05;4.15;;;11.10;99.90;;;;;;4980091;28;20441;-75
2023/12/21 12:19:20;;;;;;;16.35;4.18;;;11.20;99.90;;;;;;4963997;28;20062;-76
2023/12/21 12:21:46;;;;;;;17.20;3.92;;;11.20;99.90;;;;;;4985977;28;20046;-74
2023/12/21 12:24:17;;;;;;;19.10;4.25;;;11.20;99.90;;;;;;4965440;28;20074;-75
2023/12/21 12:26:42;;;;;;;13.80;4.10;;;11.10;99.90;;;;;;4981403;28;20069;-74
2023/12/21 12:29:08;;;;;;;21.48;4.28;;;11.20;99.90;;;;;;4964700;28;20043;-74
2023/12/21 12:31:34;;;;;;;22.77;4.82;;;11.20;99.90;;;;;;4981844;28;20042;-76
2023/12/21 12:34:00;;;;;;;20.30;4.50;;;11.20;99.90;;;;;;4978764;28;20046;-75
2023/12/21 12:36:29;;;;;;;20.13;4.72;;;11.20;99.90;;;;;;4982385;28;20046;-74
2023/12/21 12:38:56;;;;;;;20.73;4.47;;;11.20;99.90;;;;;;4979562;28;20047;-74
2023/12/21 12:41:24;;;;;;;22.05;4.72;;;11.20;99.90;;;;;;4981630;28;20494;-75
2023/12/21 12:43:50;;;;;;;18.63;4.25;;;11.20;99.90;;;;;;4980980;28;20050;-75